Sumter, SC (29150)

3:55 PM EDT on September 02, 2014 (GMT -0400)
USC Sumter | Change Station
CLOSE
Current Station
Personal Weather Station
Location: Sumter, SC
Elevation: 165 ft
Nearby Weather Stations

Elev 165 ft 33.93 °N, 80.37 °W | Updated 25 minutes ago

Mostly Cloudy
Mostly Cloudy
91.6 °F
Feels Like 97 °F
N
7.0
Wind Variable Wind from NNW
Gusts 20.0 mph

Today
High -- | Low -- °F
--% Chance of Precip.
Yesterday
High -- | Low -- °F
Precip. -- in
6:55 AM 7:45 PM
First Quarter, 54% visible
Pressure 30.00 in
Visibility 10.0 miles
Clouds Few 5000 ft
Few 5500 ft
Few 6500 ft
Heat Index 97 °F
Dew Point 69 °F
Humidity 48%
Rainfall -999.00 in
Snow Depth Not available.
UV 1.9 out of 12
Pollen 9.70 out of 12
Ozone Good
Flu Activity Not available.
METAR KSMS 021935Z AUTO 15010KT 10SM VCTS FEW050 FEW055 FEW065 33/21 A3000 RMK AO2 LTG DSNT SE AND SW AND NW

More Conditions Fewer Conditions

Pressure 30.00 in
Visibility 10.0 miles
Clouds Few 5000 ft
Few 5500 ft
Few 6500 ft
Heat Index 97 °F
Dew Point 69 °F
Humidity 48%
Rainfall -999.00 in
Snow Depth Not available.
UV 1.9 out of 12
Pollen 9.70 out of 12
Ozone Good
Flu Activity Not available.
METAR KSMS 021935Z AUTO 15010KT 10SM VCTS FEW050 FEW055 FEW065 33/21 A3000 RMK AO2 LTG DSNT SE AND SW AND NW

More Conditions Fewer Conditions

10-Day Weather Forecast

Almanac

Astronomy

Sep. 02, 2014 Rise Set
Actual Time 6:55 AM EDT 7:45 PM EDT
Civil Twilight 6:29 AM EDT 8:10 PM EDT
Nautical Twilight 5:59 AM EDT 8:40 PM EDT
Astronomical Twilight 5:28 AM EDT 9:11 PM EDT
Moon 2:18 PM EDT 12:05 AM EDT
Length of Visible Light 13h 40m
Length of Day
12h 49m
Tomorrow will be 2m 2s shorter.
First Quarter, 54% of the Moon is Illuminated
Today
First Quarter
Sep 8
Full
Sep 15
Last Quarter
Sep 24
New
Oct 1
First Quarter

Today's Extremes

State Highs State Lows

Community

WunderPhotos

Upload Photos

1,749,751 photos uploaded!

WunderBlogs® & News

By Dr. Jeff Masters
Director of Meteorology, Weather Underground
By Kari Strenfel
Meteorologist, Weather Underground
By Christopher C. Burt
Weather Historian, Weather Underground
September 2, 2014
September 2, 2014
September 2, 2014

Nearby

Air Quality

  Air Quality AQ Index Pollutant
Yesterday Good
OZONE
Current Good
OZONE
Tuesday Good
OZONE

Snow Depth

Station Depth Elevation
No new snow has been reported.

Earthquake Activity

City Distance Mag. Time & Date
No recent earthquake activity has been reported nearby.
Minimum magnitude displayed is 2.5.

Coastal Water Temperatures

Place Temperature
No Stations Reporting

Nearby Weather Stations